KTCC/TCC METAR and TAF weather

Enter ICAO airport designator
Station Type Date Time Source
KTCC METAR 2019/08/20 08:53 UTC NOAA

KTCC 200853Z AUTO 22006KT 10SM CLR 22/10 A3008 RMK AO2 SLP112 T02220100 53003


Station Type Date Time Source
KTCC Decoded METAR 2019/08/20 08:53 UTC NOAA

TUCUMCARI MUNICIPAL AIRPORT , NM, United States (KTCC) 35-11N 103-36W 1235M
Aug 20, 2019 - 04:53 AM EDT / 2019.08.20 0853 UTC
Wind: from the SW (220 degrees) at 7 MPH (6 KT):0
Visibility: 10 mile(s):0
Sky conditions: clear
Temperature: 72.0 F (22.2 C)
Dew Point: 50.0 F (10.0 C)
Relative Humidity: 45%
Pressure (altimeter): 30.08 in. Hg (1018 hPa)
Pressure tendency: 0.01 inches (0.3 hPa) higher than three hours ago
ob: KTCC 200853Z AUTO 22006KT 10SM CLR 22/10 A3008 RMK AO2 SLP112 T02220100 53003
cycle: 9

Station Type Date Time Source
KTCC TAF 2019/08/20 06:24 UTC NOAA

TAF KTCC 200522Z 2006/2106 18008KT P6SM BKN130
FM201500 22015G22KT P6SM BKN140
FM210200 30010KT P6SM SCT250

Example: see airport list